上海/浦東 の空港の天気 - METARとTAF

上海浦東国際空港 ( ZSPD / PVG ) - 中国 上海市
飛行場実況気象(Metar)
観測時間12/10 13:00 CST (12/10 05:00 UTC)
風向・風速東北東 8m/s
視程10km以上
天気現象
全天を覆う雲 雲底高度 700m
気温11℃
湿度71%
気圧1027hPa
METARZSPD 100500Z 06008MPS 010V080 9999 OVC023 11/06 Q1027 NOSIG
過去の天気等 Google飛行場航空写真 Wunderground天気予報

過去48時間のMETAR

飛行場予報(TAF)
発表時間: 12/10 11:17 CST (12/10 03:17 UTC)
予報対象時間: 10日14時 CST ~ 11日14時 CST
風向・風速北東 6m/s
視程6000m
全天の8割程度の雲 雲底高度 340m
11日5時 CST ~ 11日6時 CST に徐々に
風向・風速北北西 9m/s 瞬間風速 15m/s
TAF ZSPD 100317Z 1006/1106 05006MPS 6000 BKN011 TX10/1006Z TN03/1020Z
BECMG 1021/1022 34009G15MPS